Terminal Aerodrome Forecast
Issued by NWS

Home | Current Version | Previous Version | Text Only | Print | Product List | Glossary On
Versions: 1 2 3 4 5 6 7 8 9 10 11 12 13 14 15 16 17 18 19 20 21 22 23 24 25 26 27 28 29 30 31 32 33
000
FTUS43 KDLH 290500
TAFHIB
TAF
KHIB 290531Z 2906/3006 03011KT P6SM -RA OVC013
      TEMPO 2906/2908 3SM -RA BR BKN008 OVC013
     FM290800 04011G18KT P6SM VCSH BKN012 OVC020
     FM291500 06010KT P6SM BKN025
     FM292100 07008KT P6SM BKN035=

USA.gov is the U.S. government's official web portal to all federal, state and local government web resources and services.